sensor_id;sensor_type;location;lat;lon;timestamp;P1;durP1;ratioP1;P2;durP2;ratioP2
83840;SDS011;73868;52.172;10.668;2024-02-15T00:00:36;2.28;;;2.10;;
83840;SDS011;73868;52.172;10.668;2024-02-15T00:03:02;2.15;;;2.05;;
83840;SDS011;73868;52.172;10.668;2024-02-15T00:05:29;2.42;;;2.22;;
83840;SDS011;73868;52.172;10.668;2024-02-15T00:07:54;2.60;;;2.40;;
83840;SDS011;73868;52.172;10.668;2024-02-15T00:10:20;2.92;;;2.72;;
83840;SDS011;73868;52.172;10.668;2024-02-15T00:12:49;2.30;;;2.20;;
83840;SDS011;73868;52.172;10.668;2024-02-15T00:15:16;2.80;;;2.60;;
83840;SDS011;73868;52.172;10.668;2024-02-15T00:17:42;2.80;;;2.60;;
83840;SDS011;73868;52.172;10.668;2024-02-15T00:20:07;2.85;;;2.65;;
83840;SDS011;73868;52.172;10.668;2024-02-15T00:22:34;2.83;;;2.63;;
83840;SDS011;73868;52.172;10.668;2024-02-15T00:25:01;2.90;;;2.60;;
83840;SDS011;73868;52.172;10.668;2024-02-15T00:27:26;3.97;;;3.00;;
83840;SDS011;73868;52.172;10.668;2024-02-15T00:29:52;2.90;;;2.70;;
83840;SDS011;73868;52.172;10.668;2024-02-15T00:32:17;3.17;;;2.97;;
83840;SDS011;73868;52.172;10.668;2024-02-15T00:34:43;3.28;;;3.05;;
83840;SDS011;73868;52.172;10.668;2024-02-15T00:37:08;3.80;;;3.35;;
83840;SDS011;73868;52.172;10.668;2024-02-15T00:39:34;3.40;;;3.10;;
83840;SDS011;73868;52.172;10.668;2024-02-15T00:41:59;3.10;;;2.90;;
83840;SDS011;73868;52.172;10.668;2024-02-15T00:44:25;3.38;;;3.08;;
83840;SDS011;73868;52.172;10.668;2024-02-15T00:46:51;3.55;;;3.25;;
83840;SDS011;73868;52.172;10.668;2024-02-15T00:49:17;3.50;;;3.20;;
83840;SDS011;73868;52.172;10.668;2024-02-15T00:51:45;3.08;;;2.88;;
83840;SDS011;73868;52.172;10.668;2024-02-15T00:54:11;2.78;;;2.58;;
83840;SDS011;73868;52.172;10.668;2024-02-15T00:56:36;3.55;;;3.28;;
83840;SDS011;73868;52.172;10.668;2024-02-15T00:59:02;3.30;;;3.00;;
83840;SDS011;73868;52.172;10.668;2024-02-15T01:01:28;3.05;;;2.53;;
83840;SDS011;73868;52.172;10.668;2024-02-15T01:03:54;3.72;;;3.42;;
83840;SDS011;73868;52.172;10.668;2024-02-15T01:06:19;3.72;;;3.42;;
83840;SDS011;73868;52.172;10.668;2024-02-15T01:08:45;3.63;;;3.25;;
83840;SDS011;73868;52.172;10.668;2024-02-15T01:11:10;3.50;;;3.20;;
83840;SDS011;73868;52.172;10.668;2024-02-15T01:13:36;3.60;;;3.15;;
83840;SDS011;73868;52.172;10.668;2024-02-15T01:16:02;4.05;;;3.72;;
83840;SDS011;73868;52.172;10.668;2024-02-15T01:18:28;3.42;;;3.10;;
83840;SDS011;73868;52.172;10.668;2024-02-15T01:20:55;3.83;;;3.35;;
83840;SDS011;73868;52.172;10.668;2024-02-15T01:23:21;3.33;;;3.03;;
83840;SDS011;73868;52.172;10.668;2024-02-15T01:25:47;3.67;;;3.38;;
83840;SDS011;73868;52.172;10.668;2024-02-15T01:28:13;3.42;;;3.13;;
83840;SDS011;73868;52.172;10.668;2024-02-15T01:30:39;3.50;;;3.20;;
83840;SDS011;73868;52.172;10.668;2024-02-15T01:33:04;3.80;;;3.38;;
83840;SDS011;73868;52.172;10.668;2024-02-15T01:35:30;3.95;;;3.65;;
83840;SDS011;73868;52.172;10.668;2024-02-15T01:37:56;3.95;;;3.63;;
83840;SDS011;73868;52.172;10.668;2024-02-15T01:40:21;4.38;;;3.97;;
83840;SDS011;73868;52.172;10.668;2024-02-15T01:42:47;4.03;;;3.70;;
83840;SDS011;73868;52.172;10.668;2024-02-15T01:45:14;3.78;;;3.42;;
83840;SDS011;73868;52.172;10.668;2024-02-15T01:47:40;3.55;;;3.25;;
83840;SDS011;73868;52.172;10.668;2024-02-15T01:50:07;3.65;;;3.35;;
83840;SDS011;73868;52.172;10.668;2024-02-15T01:52:35;4.47;;;3.88;;
83840;SDS011;73868;52.172;10.668;2024-02-15T01:55:02;3.63;;;3.33;;
83840;SDS011;73868;52.172;10.668;2024-02-15T01:57:32;3.72;;;3.42;;
83840;SDS011;73868;52.172;10.668;2024-02-15T02:00:05;3.95;;;3.53;;
83840;SDS011;73868;52.172;10.668;2024-02-15T02:02:33;3.97;;;3.58;;
83840;SDS011;73868;52.172;10.668;2024-02-15T02:05:01;4.68;;;4.15;;
83840;SDS011;73868;52.172;10.668;2024-02-15T02:07:27;4.28;;;3.88;;
83840;SDS011;73868;52.172;10.668;2024-02-15T02:09:53;5.05;;;3.78;;
83840;SDS011;73868;52.172;10.668;2024-02-15T02:12:19;3.97;;;3.58;;
83840;SDS011;73868;52.172;10.668;2024-02-15T02:14:45;4.40;;;3.65;;
83840;SDS011;73868;52.172;10.668;2024-02-15T02:17:13;3.55;;;3.25;;
83840;SDS011;73868;52.172;10.668;2024-02-15T02:19:39;4.38;;;3.97;;
83840;SDS011;73868;52.172;10.668;2024-02-15T02:22:05;3.92;;;3.58;;
83840;SDS011;73868;52.172;10.668;2024-02-15T02:24:34;4.03;;;3.63;;
83840;SDS011;73868;52.172;10.668;2024-02-15T02:27:06;3.47;;;3.17;;
83840;SDS011;73868;52.172;10.668;2024-02-15T02:29:35;3.70;;;3.40;;
83840;SDS011;73868;52.172;10.668;2024-02-15T02:32:01;4.03;;;3.13;;
83840;SDS011;73868;52.172;10.668;2024-02-15T02:34:26;4.70;;;3.70;;
83840;SDS011;73868;52.172;10.668;2024-02-15T02:36:52;3.72;;;3.40;;
83840;SDS011;73868;52.172;10.668;2024-02-15T02:39:17;3.92;;;3.20;;
83840;SDS011;73868;52.172;10.668;2024-02-15T02:41:43;3.58;;;3.25;;
83840;SDS011;73868;52.172;10.668;2024-02-15T02:44:08;3.63;;;3.10;;
83840;SDS011;73868;52.172;10.668;2024-02-15T02:46:34;3.20;;;2.90;;
83840;SDS011;73868;52.172;10.668;2024-02-15T02:49:00;3.25;;;2.95;;
83840;SDS011;73868;52.172;10.668;2024-02-15T02:51:26;3.30;;;3.00;;
83840;SDS011;73868;52.172;10.668;2024-02-15T02:53:52;3.25;;;2.92;;
83840;SDS011;73868;52.172;10.668;2024-02-15T02:56:17;2.83;;;2.63;;
83840;SDS011;73868;52.172;10.668;2024-02-15T02:58:43;3.10;;;2.80;;
83840;SDS011;73868;52.172;10.668;2024-02-15T03:01:09;3.08;;;2.72;;
83840;SDS011;73868;52.172;10.668;2024-02-15T03:03:36;2.92;;;2.70;;
83840;SDS011;73868;52.172;10.668;2024-02-15T03:06:03;2.88;;;2.65;;
83840;SDS011;73868;52.172;10.668;2024-02-15T03:08:29;2.85;;;2.55;;
83840;SDS011;73868;52.172;10.668;2024-02-15T03:10:55;2.85;;;2.65;;
83840;SDS011;73868;52.172;10.668;2024-02-15T03:13:20;2.60;;;2.40;;
83840;SDS011;73868;52.172;10.668;2024-02-15T03:15:47;2.58;;;2.38;;
83840;SDS011;73868;52.172;10.668;2024-02-15T03:18:16;3.92;;;2.65;;
83840;SDS011;73868;52.172;10.668;2024-02-15T03:20:42;3.58;;;2.83;;
83840;SDS011;73868;52.172;10.668;2024-02-15T03:23:08;2.63;;;2.42;;
83840;SDS011;73868;52.172;10.668;2024-02-15T03:25:33;2.83;;;2.55;;
83840;SDS011;73868;52.172;10.668;2024-02-15T03:27:59;2.63;;;2.42;;
83840;SDS011;73868;52.172;10.668;2024-02-15T03:30:30;2.85;;;2.60;;
83840;SDS011;73868;52.172;10.668;2024-02-15T03:32:59;2.42;;;2.28;;
83840;SDS011;73868;52.172;10.668;2024-02-15T03:35:25;2.75;;;2.55;;
83840;SDS011;73868;52.172;10.668;2024-02-15T03:37:53;2.70;;;2.50;;
83840;SDS011;73868;52.172;10.668;2024-02-15T03:40:20;2.75;;;2.50;;
83840;SDS011;73868;52.172;10.668;2024-02-15T03:42:46;2.83;;;2.30;;
83840;SDS011;73868;52.172;10.668;2024-02-15T03:45:12;2.80;;;2.60;;
83840;SDS011;73868;52.172;10.668;2024-02-15T03:47:38;3.05;;;2.35;;
83840;SDS011;73868;52.172;10.668;2024-02-15T03:50:07;2.17;;;2.08;;
83840;SDS011;73868;52.172;10.668;2024-02-15T03:52:37;2.40;;;2.20;;
83840;SDS011;73868;52.172;10.668;2024-02-15T03:55:03;2.40;;;2.20;;
83840;SDS011;73868;52.172;10.668;2024-02-15T03:57:29;2.10;;;1.90;;
83840;SDS011;73868;52.172;10.668;2024-02-15T03:59:55;2.20;;;2.00;;
83840;SDS011;73868;52.172;10.668;2024-02-15T04:02:24;2.50;;;2.30;;
83840;SDS011;73868;52.172;10.668;2024-02-15T04:04:54;2.50;;;2.22;;
83840;SDS011;73868;52.172;10.668;2024-02-15T04:07:20;2.60;;;2.40;;
83840;SDS011;73868;52.172;10.668;2024-02-15T04:09:46;2.40;;;2.20;;
83840;SDS011;73868;52.172;10.668;2024-02-15T04:12:12;2.00;;;1.90;;
83840;SDS011;73868;52.172;10.668;2024-02-15T04:14:39;2.25;;;2.03;;
83840;SDS011;73868;52.172;10.668;2024-02-15T04:17:05;2.35;;;2.00;;
83840;SDS011;73868;52.172;10.668;2024-02-15T04:19:31;2.08;;;1.90;;
83840;SDS011;73868;52.172;10.668;2024-02-15T04:21:57;2.15;;;1.90;;
83840;SDS011;73868;52.172;10.668;2024-02-15T04:24:23;2.40;;;2.20;;
83840;SDS011;73868;52.172;10.668;2024-02-15T04:26:50;2.53;;;1.90;;
83840;SDS011;73868;52.172;10.668;2024-02-15T04:29:16;2.20;;;2.00;;
83840;SDS011;73868;52.172;10.668;2024-02-15T04:31:45;2.17;;;1.88;;
83840;SDS011;73868;52.172;10.668;2024-02-15T04:34:14;2.00;;;1.90;;
83840;SDS011;73868;52.172;10.668;2024-02-15T04:36:40;2.33;;;1.83;;
83840;SDS011;73868;52.172;10.668;2024-02-15T04:39:07;2.00;;;1.88;;
83840;SDS011;73868;52.172;10.668;2024-02-15T04:41:35;2.53;;;1.67;;
83840;SDS011;73868;52.172;10.668;2024-02-15T04:44:03;2.08;;;1.80;;
83840;SDS011;73868;52.172;10.668;2024-02-15T04:46:30;2.58;;;1.70;;
83840;SDS011;73868;52.172;10.668;2024-02-15T04:48:56;1.60;;;1.50;;
83840;SDS011;73868;52.172;10.668;2024-02-15T04:51:25;1.52;;;1.42;;
83840;SDS011;73868;52.172;10.668;2024-02-15T04:53:52;1.58;;;1.48;;
83840;SDS011;73868;52.172;10.668;2024-02-15T04:56:18;1.80;;;1.70;;
83840;SDS011;73868;52.172;10.668;2024-02-15T04:58:45;1.60;;;1.50;;
83840;SDS011;73868;52.172;10.668;2024-02-15T05:01:15;1.50;;;1.40;;
83840;SDS011;73868;52.172;10.668;2024-02-15T05:03:41;1.55;;;1.45;;
83840;SDS011;73868;52.172;10.668;2024-02-15T05:06:07;1.60;;;1.40;;
83840;SDS011;73868;52.172;10.668;2024-02-15T05:08:33;1.13;;;1.13;;
83840;SDS011;73868;52.172;10.668;2024-02-15T05:11:01;1.45;;;1.35;;
83840;SDS011;73868;52.172;10.668;2024-02-15T05:13:29;2.65;;;1.60;;
83840;SDS011;73868;52.172;10.668;2024-02-15T05:15:55;1.60;;;1.50;;
83840;SDS011;73868;52.172;10.668;2024-02-15T05:18:20;1.52;;;1.42;;
83840;SDS011;73868;52.172;10.668;2024-02-15T05:20:46;1.40;;;1.30;;
83840;SDS011;73868;52.172;10.668;2024-02-15T05:23:11;3.03;;;1.80;;
83840;SDS011;73868;52.172;10.668;2024-02-15T05:25:37;1.60;;;1.50;;
83840;SDS011;73868;52.172;10.668;2024-02-15T05:28:03;1.40;;;1.30;;
83840;SDS011;73868;52.172;10.668;2024-02-15T05:30:31;1.25;;;1.20;;
83840;SDS011;73868;52.172;10.668;2024-02-15T05:32:57;1.42;;;1.33;;
83840;SDS011;73868;52.172;10.668;2024-02-15T05:35:23;2.13;;;1.67;;
83840;SDS011;73868;52.172;10.668;2024-02-15T05:37:49;1.55;;;1.45;;
83840;SDS011;73868;52.172;10.668;2024-02-15T05:40:17;1.30;;;1.20;;
83840;SDS011;73868;52.172;10.668;2024-02-15T05:42:45;1.70;;;1.60;;
83840;SDS011;73868;52.172;10.668;2024-02-15T05:47:49;1.88;;;1.77;;
83840;SDS011;73868;52.172;10.668;2024-02-15T05:50:15;2.42;;;2.22;;
83840;SDS011;73868;52.172;10.668;2024-02-15T05:52:41;2.38;;;1.70;;
83840;SDS011;73868;52.172;10.668;2024-02-15T05:55:07;1.38;;;1.27;;
83840;SDS011;73868;52.172;10.668;2024-02-15T05:57:33;1.70;;;1.60;;
83840;SDS011;73868;52.172;10.668;2024-02-15T05:59:58;2.20;;;1.40;;
83840;SDS011;73868;52.172;10.668;2024-02-15T06:02:28;1.48;;;1.38;;
83840;SDS011;73868;52.172;10.668;2024-02-15T06:04:55;1.70;;;1.60;;
83840;SDS011;73868;52.172;10.668;2024-02-15T06:07:26;1.45;;;1.27;;
83840;SDS011;73868;52.172;10.668;2024-02-15T06:09:51;1.75;;;1.65;;
83840;SDS011;73868;52.172;10.668;2024-02-15T06:12:17;2.22;;;2.03;;
83840;SDS011;73868;52.172;10.668;2024-02-15T06:14:42;2.38;;;2.10;;
83840;SDS011;73868;52.172;10.668;2024-02-15T06:17:08;6.22;;;2.25;;
83840;SDS011;73868;52.172;10.668;2024-02-15T06:19:35;6.15;;;1.55;;
83840;SDS011;73868;52.172;10.668;2024-02-15T06:22:01;4.65;;;1.85;;
83840;SDS011;73868;52.172;10.668;2024-02-15T06:24:29;5.85;;;1.95;;
83840;SDS011;73868;52.172;10.668;2024-02-15T06:26:54;12.32;;;2.13;;
83840;SDS011;73868;52.172;10.668;2024-02-15T06:29:24;2.55;;;1.35;;
83840;SDS011;73868;52.172;10.668;2024-02-15T06:32:09;1.27;;;1.27;;
83840;SDS011;73868;52.172;10.668;2024-02-15T06:34:53;1.48;;;1.30;;
83840;SDS011;73868;52.172;10.668;2024-02-15T06:37:38;2.88;;;1.20;;
83840;SDS011;73868;52.172;10.668;2024-02-15T06:40:22;1.35;;;1.25;;
83840;SDS011;73868;52.172;10.668;2024-02-15T06:42:48;2.03;;;1.30;;
83840;SDS011;73868;52.172;10.668;2024-02-15T06:45:14;2.65;;;1.40;;
83840;SDS011;73868;52.172;10.668;2024-02-15T06:47:43;2.15;;;1.60;;
83840;SDS011;73868;52.172;10.668;2024-02-15T06:50:12;3.35;;;1.70;;
83840;SDS011;73868;52.172;10.668;2024-02-15T06:52:38;1.65;;;1.42;;
83840;SDS011;73868;52.172;10.668;2024-02-15T06:55:07;3.40;;;1.70;;
83840;SDS011;73868;52.172;10.668;2024-02-15T06:57:36;2.67;;;1.58;;
83840;SDS011;73868;52.172;10.668;2024-02-15T07:00:06;2.90;;;1.85;;
83840;SDS011;73868;52.172;10.668;2024-02-15T07:02:33;2.10;;;1.90;;
83840;SDS011;73868;52.172;10.668;2024-02-15T07:04:59;3.67;;;1.90;;
83840;SDS011;73868;52.172;10.668;2024-02-15T07:07:25;5.55;;;2.13;;
83840;SDS011;73868;52.172;10.668;2024-02-15T07:09:51;5.07;;;2.47;;
83840;SDS011;73868;52.172;10.668;2024-02-15T07:12:16;7.22;;;2.55;;
83840;SDS011;73868;52.172;10.668;2024-02-15T07:14:43;4.15;;;2.35;;
83840;SDS011;73868;52.172;10.668;2024-02-15T07:17:12;3.45;;;2.47;;
83840;SDS011;73868;52.172;10.668;2024-02-15T07:19:42;3.13;;;2.15;;
83840;SDS011;73868;52.172;10.668;2024-02-15T07:22:09;4.15;;;2.65;;
83840;SDS011;73868;52.172;10.668;2024-02-15T07:24:35;4.82;;;2.67;;
83840;SDS011;73868;52.172;10.668;2024-02-15T07:27:03;7.57;;;3.03;;
83840;SDS011;73868;52.172;10.668;2024-02-15T07:29:31;5.22;;;2.97;;
83840;SDS011;73868;52.172;10.668;2024-02-15T07:32:02;2.97;;;2.20;;
83840;SDS011;73868;52.172;10.668;2024-02-15T07:34:29;2.60;;;2.40;;
83840;SDS011;73868;52.172;10.668;2024-02-15T07:36:55;3.80;;;2.60;;
83840;SDS011;73868;52.172;10.668;2024-02-15T07:39:22;5.78;;;2.60;;
83840;SDS011;73868;52.172;10.668;2024-02-15T07:41:52;3.72;;;2.40;;
83840;SDS011;73868;52.172;10.668;2024-02-15T07:44:19;3.40;;;2.30;;
83840;SDS011;73868;52.172;10.668;2024-02-15T07:46:46;5.57;;;2.28;;
83840;SDS011;73868;52.172;10.668;2024-02-15T07:49:12;4.45;;;2.22;;
83840;SDS011;73868;52.172;10.668;2024-02-15T07:51:38;5.68;;;2.40;;
83840;SDS011;73868;52.172;10.668;2024-02-15T07:54:03;4.22;;;2.00;;
83840;SDS011;73868;52.172;10.668;2024-02-15T07:56:29;3.55;;;2.20;;
83840;SDS011;73868;52.172;10.668;2024-02-15T07:58:55;3.50;;;2.20;;
83840;SDS011;73868;52.172;10.668;2024-02-15T08:01:21;3.03;;;1.80;;
83840;SDS011;73868;52.172;10.668;2024-02-15T08:03:47;2.53;;;1.92;;
83840;SDS011;73868;52.172;10.668;2024-02-15T08:06:13;2.80;;;1.90;;
83840;SDS011;73868;52.172;10.668;2024-02-15T08:08:41;4.45;;;2.10;;
83840;SDS011;73868;52.172;10.668;2024-02-15T08:11:08;3.25;;;1.90;;
83840;SDS011;73868;52.172;10.668;2024-02-15T08:13:49;4.35;;;1.92;;
83840;SDS011;73868;52.172;10.668;2024-02-15T08:16:19;4.57;;;2.15;;
83840;SDS011;73868;52.172;10.668;2024-02-15T08:18:49;2.80;;;2.10;;
83840;SDS011;73868;52.172;10.668;2024-02-15T08:21:25;5.25;;;2.03;;
83840;SDS011;73868;52.172;10.668;2024-02-15T08:23:52;2.88;;;1.90;;
83840;SDS011;73868;52.172;10.668;2024-02-15T08:26:17;3.55;;;2.05;;
83840;SDS011;73868;52.172;10.668;2024-02-15T08:28:43;3.58;;;1.88;;
83840;SDS011;73868;52.172;10.668;2024-02-15T08:31:08;3.35;;;2.03;;
83840;SDS011;73868;52.172;10.668;2024-02-15T08:33:36;2.60;;;1.65;;
83840;SDS011;73868;52.172;10.668;2024-02-15T08:36:03;2.95;;;1.70;;
83840;SDS011;73868;52.172;10.668;2024-02-15T08:38:30;4.78;;;1.60;;
83840;SDS011;73868;52.172;10.668;2024-02-15T08:40:56;3.15;;;1.90;;
83840;SDS011;73868;52.172;10.668;2024-02-15T08:43:21;1.88;;;1.67;;
83840;SDS011;73868;52.172;10.668;2024-02-15T08:45:47;2.13;;;1.75;;
83840;SDS011;73868;52.172;10.668;2024-02-15T08:48:13;3.08;;;1.95;;
83840;SDS011;73868;52.172;10.668;2024-02-15T08:50:39;2.47;;;1.50;;
83840;SDS011;73868;52.172;10.668;2024-02-15T08:53:06;3.22;;;1.70;;
83840;SDS011;73868;52.172;10.668;2024-02-15T08:55:32;3.25;;;1.55;;
83840;SDS011;73868;52.172;10.668;2024-02-15T08:58:00;2.55;;;2.05;;
83840;SDS011;73868;52.172;10.668;2024-02-15T09:00:27;3.08;;;1.90;;
83840;SDS011;73868;52.172;10.668;2024-02-15T09:02:53;3.63;;;1.80;;
83840;SDS011;73868;52.172;10.668;2024-02-15T09:05:18;3.35;;;2.05;;
83840;SDS011;73868;52.172;10.668;2024-02-15T09:07:47;1.85;;;1.75;;
83840;SDS011;73868;52.172;10.668;2024-02-15T09:10:13;3.63;;;1.65;;
83840;SDS011;73868;52.172;10.668;2024-02-15T09:12:40;3.60;;;1.73;;
83840;SDS011;73868;52.172;10.668;2024-02-15T09:15:07;2.58;;;1.95;;
83840;SDS011;73868;52.172;10.668;2024-02-15T09:17:37;4.22;;;2.10;;
83840;SDS011;73868;52.172;10.668;2024-02-15T09:20:06;3.22;;;1.88;;
83840;SDS011;73868;52.172;10.668;2024-02-15T09:22:33;4.07;;;1.50;;
83840;SDS011;73868;52.172;10.668;2024-02-15T09:25:01;3.35;;;1.52;;
83840;SDS011;73868;52.172;10.668;2024-02-15T09:27:27;2.30;;;1.58;;
83840;SDS011;73868;52.172;10.668;2024-02-15T09:29:53;5.30;;;1.63;;
83840;SDS011;73868;52.172;10.668;2024-02-15T09:32:18;2.47;;;1.80;;
83840;SDS011;73868;52.172;10.668;2024-02-15T09:34:44;3.25;;;1.75;;
83840;SDS011;73868;52.172;10.668;2024-02-15T09:37:09;2.10;;;1.52;;
83840;SDS011;73868;52.172;10.668;2024-02-15T09:39:36;2.95;;;1.73;;
83840;SDS011;73868;52.172;10.668;2024-02-15T09:42:03;1.50;;;1.40;;
83840;SDS011;73868;52.172;10.668;2024-02-15T09:44:28;1.40;;;1.30;;
83840;SDS011;73868;52.172;10.668;2024-02-15T09:47:04;2.65;;;1.27;;
83840;SDS011;73868;52.172;10.668;2024-02-15T09:49:40;1.55;;;1.33;;
83840;SDS011;73868;52.172;10.668;2024-02-15T09:52:06;2.25;;;1.48;;
83840;SDS011;73868;52.172;10.668;2024-02-15T09:54:38;2.35;;;1.30;;
83840;SDS011;73868;52.172;10.668;2024-02-15T09:57:10;2.15;;;1.20;;
83840;SDS011;73868;52.172;10.668;2024-02-15T09:59:39;2.30;;;1.40;;
83840;SDS011;73868;52.172;10.668;2024-02-15T10:02:06;3.30;;;1.60;;
83840;SDS011;73868;52.172;10.668;2024-02-15T10:04:37;2.00;;;1.40;;
83840;SDS011;73868;52.172;10.668;2024-02-15T10:07:04;1.42;;;1.20;;
83840;SDS011;73868;52.172;10.668;2024-02-15T10:09:30;2.03;;;1.40;;
83840;SDS011;73868;52.172;10.668;2024-02-15T10:11:57;2.70;;;1.85;;
83840;SDS011;73868;52.172;10.668;2024-02-15T10:14:24;1.95;;;1.50;;
83840;SDS011;73868;52.172;10.668;2024-02-15T10:16:51;2.60;;;1.75;;
83840;SDS011;73868;52.172;10.668;2024-02-15T10:19:18;1.65;;;1.50;;
83840;SDS011;73868;52.172;10.668;2024-02-15T10:21:45;2.35;;;1.50;;
83840;SDS011;73868;52.172;10.668;2024-02-15T10:24:11;2.47;;;1.60;;
83840;SDS011;73868;52.172;10.668;2024-02-15T10:26:37;2.08;;;1.40;;
83840;SDS011;73868;52.172;10.668;2024-02-15T10:29:06;2.58;;;1.80;;
83840;SDS011;73868;52.172;10.668;2024-02-15T10:31:35;3.53;;;3.10;;
83840;SDS011;73868;52.172;10.668;2024-02-15T10:34:06;2.13;;;1.30;;
83840;SDS011;73868;52.172;10.668;2024-02-15T10:36:32;1.85;;;1.50;;
83840;SDS011;73868;52.172;10.668;2024-02-15T10:39:14;2.22;;;1.40;;
83840;SDS011;73868;52.172;10.668;2024-02-15T10:41:47;3.85;;;1.85;;
83840;SDS011;73868;52.172;10.668;2024-02-15T10:44:15;3.83;;;1.50;;
83840;SDS011;73868;52.172;10.668;2024-02-15T10:46:43;2.90;;;1.58;;
83840;SDS011;73868;52.172;10.668;2024-02-15T10:49:11;3.15;;;2.00;;
83840;SDS011;73868;52.172;10.668;2024-02-15T10:51:36;2.10;;;1.88;;
83840;SDS011;73868;52.172;10.668;2024-02-15T10:54:08;3.15;;;1.80;;
83840;SDS011;73868;52.172;10.668;2024-02-15T10:56:41;3.88;;;2.00;;
83840;SDS011;73868;52.172;10.668;2024-02-15T11:01:45;2.72;;;2.08;;
83840;SDS011;73868;52.172;10.668;2024-02-15T11:04:14;2.72;;;1.70;;
83840;SDS011;73868;52.172;10.668;2024-02-15T11:06:41;3.10;;;1.77;;
83840;SDS011;73868;52.172;10.668;2024-02-15T11:09:09;1.83;;;1.35;;
83840;SDS011;73868;52.172;10.668;2024-02-15T11:11:36;4.82;;;1.55;;
83840;SDS011;73868;52.172;10.668;2024-02-15T11:16:48;2.22;;;1.10;;
83840;SDS011;73868;52.172;10.668;2024-02-15T11:22:01;3.60;;;1.40;;
83840;SDS011;73868;52.172;10.668;2024-02-15T11:24:35;2.17;;;1.60;;
83840;SDS011;73868;52.172;10.668;2024-02-15T11:27:02;2.55;;;1.35;;
83840;SDS011;73868;52.172;10.668;2024-02-15T11:29:48;4.90;;;2.78;;
83840;SDS011;73868;52.172;10.668;2024-02-15T11:40:16;3.70;;;3.08;;
83840;SDS011;73868;52.172;10.668;2024-02-15T11:42:48;6.88;;;2.63;;
83840;SDS011;73868;52.172;10.668;2024-02-15T11:45:18;2.70;;;1.77;;
83840;SDS011;73868;52.172;10.668;2024-02-15T11:47:44;3.60;;;1.75;;
83840;SDS011;73868;52.172;10.668;2024-02-15T11:50:17;4.78;;;2.58;;
83840;SDS011;73868;52.172;10.668;2024-02-15T11:52:45;2.75;;;1.73;;
83840;SDS011;73868;52.172;10.668;2024-02-15T11:55:13;3.72;;;3.08;;
83840;SDS011;73868;52.172;10.668;2024-02-15T11:57:44;3.17;;;1.42;;
83840;SDS011;73868;52.172;10.668;2024-02-15T12:00:29;2.95;;;1.60;;
83840;SDS011;73868;52.172;10.668;2024-02-15T12:03:14;6.82;;;4.53;;
83840;SDS011;73868;52.172;10.668;2024-02-15T12:05:59;5.32;;;3.42;;
83840;SDS011;73868;52.172;10.668;2024-02-15T12:08:45;5.38;;;4.13;;
83840;SDS011;73868;52.172;10.668;2024-02-15T12:11:30;5.45;;;4.13;;
83840;SDS011;73868;52.172;10.668;2024-02-15T12:14:14;6.93;;;4.20;;
83840;SDS011;73868;52.172;10.668;2024-02-15T12:17:08;6.10;;;4.10;;
83840;SDS011;73868;52.172;10.668;2024-02-15T12:19:57;2.13;;;1.58;;
83840;SDS011;73868;52.172;10.668;2024-02-15T12:25:05;7.60;;;5.60;;
83840;SDS011;73868;52.172;10.668;2024-02-15T12:27:45;7.30;;;5.82;;
83840;SDS011;73868;52.172;10.668;2024-02-15T12:30:15;5.25;;;4.00;;
83840;SDS011;73868;52.172;10.668;2024-02-15T12:32:50;6.90;;;4.93;;
83840;SDS011;73868;52.172;10.668;2024-02-15T12:35:17;6.38;;;2.67;;
83840;SDS011;73868;52.172;10.668;2024-02-15T12:37:48;3.88;;;2.63;;
83840;SDS011;73868;52.172;10.668;2024-02-15T12:40:34;4.85;;;3.15;;
83840;SDS011;73868;52.172;10.668;2024-02-15T12:43:07;4.80;;;2.72;;
83840;SDS011;73868;52.172;10.668;2024-02-15T12:45:37;3.90;;;2.72;;
83840;SDS011;73868;52.172;10.668;2024-02-15T12:48:04;3.78;;;2.10;;
83840;SDS011;73868;52.172;10.668;2024-02-15T12:50:31;3.58;;;2.10;;
83840;SDS011;73868;52.172;10.668;2024-02-15T12:52:57;3.53;;;2.20;;
83840;SDS011;73868;52.172;10.668;2024-02-15T12:55:34;4.68;;;2.42;;
83840;SDS011;73868;52.172;10.668;2024-02-15T12:58:01;5.20;;;2.20;;
83840;SDS011;73868;52.172;10.668;2024-02-15T13:00:34;3.83;;;2.15;;
83840;SDS011;73868;52.172;10.668;2024-02-15T13:03:05;4.45;;;2.10;;
83840;SDS011;73868;52.172;10.668;2024-02-15T13:05:40;3.72;;;2.20;;
83840;SDS011;73868;52.172;10.668;2024-02-15T13:08:06;2.53;;;2.15;;
83840;SDS011;73868;52.172;10.668;2024-02-15T13:10:38;2.72;;;1.98;;
83840;SDS011;73868;52.172;10.668;2024-02-15T13:13:06;6.40;;;5.32;;
83840;SDS011;73868;52.172;10.668;2024-02-15T13:15:34;3.55;;;2.00;;
83840;SDS011;73868;52.172;10.668;2024-02-15T13:18:01;3.85;;;2.22;;
83840;SDS011;73868;52.172;10.668;2024-02-15T13:20:31;2.25;;;1.50;;
83840;SDS011;73868;52.172;10.668;2024-02-15T13:23:01;3.03;;;2.13;;
83840;SDS011;73868;52.172;10.668;2024-02-15T13:25:33;2.08;;;1.50;;
83840;SDS011;73868;52.172;10.668;2024-02-15T13:28:01;3.85;;;1.67;;
83840;SDS011;73868;52.172;10.668;2024-02-15T13:30:29;3.88;;;1.85;;
83840;SDS011;73868;52.172;10.668;2024-02-15T13:32:55;2.85;;;1.30;;
83840;SDS011;73868;52.172;10.668;2024-02-15T13:35:21;3.58;;;1.48;;
83840;SDS011;73868;52.172;10.668;2024-02-15T13:40:23;2.88;;;2.38;;
83840;SDS011;73868;52.172;10.668;2024-02-15T13:42:53;2.33;;;1.45;;
83840;SDS011;73868;52.172;10.668;2024-02-15T13:48:04;2.58;;;1.33;;
83840;SDS011;73868;52.172;10.668;2024-02-15T13:50:32;3.00;;;1.30;;
83840;SDS011;73868;52.172;10.668;2024-02-15T13:52:58;3.40;;;1.40;;
83840;SDS011;73868;52.172;10.668;2024-02-15T13:55:24;2.75;;;1.48;;
83840;SDS011;73868;52.172;10.668;2024-02-15T13:57:51;2.88;;;1.80;;
83840;SDS011;73868;52.172;10.668;2024-02-15T14:00:18;8.55;;;4.88;;
83840;SDS011;73868;52.172;10.668;2024-02-15T14:05:21;14.25;;;8.63;;
83840;SDS011;73868;52.172;10.668;2024-02-15T14:07:50;5.43;;;3.75;;
83840;SDS011;73868;52.172;10.668;2024-02-15T14:10:28;2.75;;;2.15;;
83840;SDS011;73868;52.172;10.668;2024-02-15T14:12:56;3.13;;;1.75;;
83840;SDS011;73868;52.172;10.668;2024-02-15T14:15:30;2.40;;;1.42;;
83840;SDS011;73868;52.172;10.668;2024-02-15T14:17:59;2.92;;;1.55;;
83840;SDS011;73868;52.172;10.668;2024-02-15T14:20:26;3.53;;;1.35;;
83840;SDS011;73868;52.172;10.668;2024-02-15T14:22:53;2.85;;;1.42;;
83840;SDS011;73868;52.172;10.668;2024-02-15T14:25:21;4.30;;;1.50;;
83840;SDS011;73868;52.172;10.668;2024-02-15T14:27:48;3.72;;;1.70;;
83840;SDS011;73868;52.172;10.668;2024-02-15T14:30:13;5.13;;;2.10;;
83840;SDS011;73868;52.172;10.668;2024-02-15T14:32:58;2.15;;;1.67;;
83840;SDS011;73868;52.172;10.668;2024-02-15T14:35:33;3.00;;;1.50;;
83840;SDS011;73868;52.172;10.668;2024-02-15T14:38:04;2.00;;;1.80;;
83840;SDS011;73868;52.172;10.668;2024-02-15T14:40:39;3.65;;;1.55;;
83840;SDS011;73868;52.172;10.668;2024-02-15T14:43:08;3.92;;;2.05;;
83840;SDS011;73868;52.172;10.668;2024-02-15T14:45:37;3.75;;;1.50;;
83840;SDS011;73868;52.172;10.668;2024-02-15T14:48:03;2.70;;;2.00;;
83840;SDS011;73868;52.172;10.668;2024-02-15T14:50:29;2.00;;;1.40;;
83840;SDS011;73868;52.172;10.668;2024-02-15T14:52:55;3.00;;;1.23;;
83840;SDS011;73868;52.172;10.668;2024-02-15T14:55:21;2.55;;;1.20;;
83840;SDS011;73868;52.172;10.668;2024-02-15T14:57:47;1.58;;;1.30;;
83840;SDS011;73868;52.172;10.668;2024-02-15T15:00:13;2.90;;;1.42;;
83840;SDS011;73868;52.172;10.668;2024-02-15T15:02:42;2.45;;;1.40;;
83840;SDS011;73868;52.172;10.668;2024-02-15T15:05:14;1.85;;;1.17;;
83840;SDS011;73868;52.172;10.668;2024-02-15T15:07:59;2.95;;;1.10;;